ADDS METAR Data INFO
IDs: Format: Raw Decoded Include TAF

Data at: 0900 UTC 16 Jul 2018

METAR for:KHSE (Hatteras/Mitchell Fl, NC, US)
Text:KHSE 160851Z AUTO 20007KT 10SM CLR 26/23 A3005 RMK AO2 SLP176 T02610233 56007
Temperature: 26.1°C ( 79°F)
Dewpoint: 23.3°C ( 74°F) [RH = 85%]
Pressure (altimeter):30.05 inches Hg (1017.7 mb) [Sea level pressure: 1017.6 mb]
Winds:from the SSW (200 degrees) at 8 MPH (7 knots; 3.6 m/s)
Visibility:10 or more sm (16+ km)
Ceiling:at least 12,000 feet AGL
Clouds:sky clear below 12,000 feet AGL
QC Flag:automated observation with no human augmentation
Text:KHSE 160751Z AUTO 21006KT 10SM CLR 26/23 A3006 RMK AO2 SLP177 T02610233
Temperature: 26.1°C ( 79°F)
Dewpoint: 23.3°C ( 74°F) [RH = 85%]
Pressure (altimeter):30.06 inches Hg (1018.0 mb) [Sea level pressure: 1017.7 mb]
Winds:from the SSW (210 degrees) at 7 MPH (6 knots; 3.1 m/s)
Visibility:10 or more sm (16+ km)
Ceiling:at least 12,000 feet AGL
Clouds:sky clear below 12,000 feet AGL
QC Flag:automated observation with no human augmentation
Text:KHSE 160651Z AUTO 21006KT 10SM CLR 26/24 A3006 RMK AO2 SLP180 T02610239
Temperature: 26.1°C ( 79°F)
Dewpoint: 23.9°C ( 75°F) [RH = 88%]
Pressure (altimeter):30.06 inches Hg (1018.0 mb) [Sea level pressure: 1018.0 mb]
Winds:from the SSW (210 degrees) at 7 MPH (6 knots; 3.1 m/s)
Visibility:10 or more sm (16+ km)
Ceiling:at least 12,000 feet AGL
Clouds:sky clear below 12,000 feet AGL
QC Flag:automated observation with no human augmentation
Text:KHSE 160551Z AUTO 22006KT 10SM CLR 26/23 A3007 RMK AO2 SLP182 T02610233 10278 20261 53002
Temperature: 26.1°C ( 79°F)
Dewpoint: 23.3°C ( 74°F) [RH = 85%]
Pressure (altimeter):30.07 inches Hg (1018.4 mb) [Sea level pressure: 1018.2 mb]
Winds:from the SW (220 degrees) at 7 MPH (6 knots; 3.1 m/s)
Visibility:10 or more sm (16+ km)
Ceiling:at least 12,000 feet AGL
Clouds:sky clear below 12,000 feet AGL
QC Flag:automated observation with no human augmentation
Text:KHSE 160451Z AUTO 22006KT 10SM CLR 27/24 A3007 RMK AO2 SLP183 T02670239 403000222
Temperature: 26.7°C ( 80°F)
Dewpoint: 23.9°C ( 75°F) [RH = 85%]
Pressure (altimeter):30.07 inches Hg (1018.4 mb) [Sea level pressure: 1018.3 mb]
Winds:from the SW (220 degrees) at 7 MPH (6 knots; 3.1 m/s)
Visibility:10 or more sm (16+ km)
Ceiling:at least 12,000 feet AGL
Clouds:sky clear below 12,000 feet AGL
QC Flag:automated observation with no human augmentation
Text:KHSE 160351Z AUTO 22006KT 10SM CLR 27/24 A3006 RMK AO2 SLP179 T02670239
Temperature: 26.7°C ( 80°F)
Dewpoint: 23.9°C ( 75°F) [RH = 85%]
Pressure (altimeter):30.06 inches Hg (1018.0 mb) [Sea level pressure: 1017.9 mb]
Winds:from the SW (220 degrees) at 7 MPH (6 knots; 3.1 m/s)
Visibility:10 or more sm (16+ km)
Ceiling:at least 12,000 feet AGL
Clouds:sky clear below 12,000 feet AGL
QC Flag:automated observation with no human augmentation
Text:KHSE 160251Z AUTO 20007KT 10SM CLR 27/24 A3007 RMK AO2 SLP181 T02670239 53005
Temperature: 26.7°C ( 80°F)
Dewpoint: 23.9°C ( 75°F) [RH = 85%]
Pressure (altimeter):30.07 inches Hg (1018.4 mb) [Sea level pressure: 1018.1 mb]
Winds:from the SSW (200 degrees) at 8 MPH (7 knots; 3.6 m/s)
Visibility:10 or more sm (16+ km)
Ceiling:at least 12,000 feet AGL
Clouds:sky clear below 12,000 feet AGL
QC Flag:automated observation with no human augmentation
Text:KHSE 160151Z AUTO 19005KT 10SM CLR 27/23 A3006 RMK AO2 SLP180 T02670228
Temperature: 26.7°C ( 80°F)
Dewpoint: 22.8°C ( 73°F) [RH = 79%]
Pressure (altimeter):30.06 inches Hg (1018.0 mb) [Sea level pressure: 1018.0 mb]
Winds:from the S (190 degrees) at 6 MPH (5 knots; 2.6 m/s)
Visibility:10 or more sm (16+ km)
Ceiling:at least 12,000 feet AGL
Clouds:sky clear below 12,000 feet AGL
QC Flag:automated observation with no human augmentation
Text:KHSE 160051Z AUTO 17007KT 10SM CLR 27/23 A3005 RMK AO2 SLP176 T02720228
Temperature: 27.2°C ( 81°F)
Dewpoint: 22.8°C ( 73°F) [RH = 77%]
Pressure (altimeter):30.05 inches Hg (1017.7 mb) [Sea level pressure: 1017.6 mb]
Winds:from the S (170 degrees) at 8 MPH (7 knots; 3.6 m/s)
Visibility:10 or more sm (16+ km)
Ceiling:at least 12,000 feet AGL
Clouds:sky clear below 12,000 feet AGL
QC Flag:automated observation with no human augmentation
Text:KHSE 152351Z AUTO 16006KT 10SM CLR 28/22 A3005 RMK AO2 SLP176 T02780222 10300 20278 55005
Temperature: 27.8°C ( 82°F)
Dewpoint: 22.2°C ( 72°F) [RH = 72%]
Pressure (altimeter):30.05 inches Hg (1017.7 mb) [Sea level pressure: 1017.6 mb]
Winds:from the SSE (160 degrees) at 7 MPH (6 knots; 3.1 m/s)
Visibility:10 or more sm (16+ km)
Ceiling:at least 12,000 feet AGL
Clouds:sky clear below 12,000 feet AGL
QC Flag:automated observation with no human augmentation
Text:KHSE 152251Z AUTO 17005KT 10SM CLR 29/22 A3005 RMK AO2 SLP175 T02940217
Temperature: 29.4°C ( 85°F)
Dewpoint: 21.7°C ( 71°F) [RH = 63%]
Pressure (altimeter):30.05 inches Hg (1017.7 mb) [Sea level pressure: 1017.5 mb]
Winds:from the S (170 degrees) at 6 MPH (5 knots; 2.6 m/s)
Visibility:10 or more sm (16+ km)
Ceiling:at least 12,000 feet AGL
Clouds:sky clear below 12,000 feet AGL
QC Flag:automated observation with no human augmentation
Text:KHSE 152151Z AUTO 17006KT 10SM CLR 30/21 A3006 RMK AO2 SLP177 T03000206
Temperature: 30.0°C ( 86°F)
Dewpoint: 20.6°C ( 69°F) [RH = 57%]
Pressure (altimeter):30.06 inches Hg (1018.0 mb) [Sea level pressure: 1017.7 mb]
Winds:from the S (170 degrees) at 7 MPH (6 knots; 3.1 m/s)
Visibility:10 or more sm (16+ km)
Ceiling:at least 12,000 feet AGL
Clouds:sky clear below 12,000 feet AGL
QC Flag:automated observation with no human augmentation
Text:KHSE 152051Z AUTO 17005KT 10SM CLR 29/21 A3007 RMK AO2 SLP181 T02940211 58010
Temperature: 29.4°C ( 85°F)
Dewpoint: 21.1°C ( 70°F) [RH = 61%]
Pressure (altimeter):30.07 inches Hg (1018.4 mb) [Sea level pressure: 1018.1 mb]
Winds:from the S (170 degrees) at 6 MPH (5 knots; 2.6 m/s)
Visibility:10 or more sm (16+ km)
Ceiling:at least 12,000 feet AGL
Clouds:sky clear below 12,000 feet AGL
QC Flag:automated observation with no human augmentation
Text:KHSE 151951Z AUTO 19006KT 10SM CLR 29/21 A3008 RMK AO2 SLP184 T02940206
Temperature: 29.4°C ( 85°F)
Dewpoint: 20.6°C ( 69°F) [RH = 59%]
Pressure (altimeter):30.08 inches Hg (1018.7 mb) [Sea level pressure: 1018.4 mb]
Winds:from the S (190 degrees) at 7 MPH (6 knots; 3.1 m/s)
Visibility:10 or more sm (16+ km)
Ceiling:at least 12,000 feet AGL
Clouds:sky clear below 12,000 feet AGL
QC Flag:automated observation with no human augmentation
Text:KHSE 151851Z AUTO 19006KT 10SM CLR 29/20 A3009 RMK AO2 SLP188 T02940200
Temperature: 29.4°C ( 85°F)
Dewpoint: 20.0°C ( 68°F) [RH = 57%]
Pressure (altimeter):30.09 inches Hg (1019.0 mb) [Sea level pressure: 1018.8 mb]
Winds:from the S (190 degrees) at 7 MPH (6 knots; 3.1 m/s)
Visibility:10 or more sm (16+ km)
Ceiling:at least 12,000 feet AGL
Clouds:sky clear below 12,000 feet AGL
QC Flag:automated observation with no human augmentation
Text:KHSE 151751Z AUTO 21005KT 10SM CLR 29/21 A3010 RMK AO2 SLP190 T02940206 10294 20267 56003
Temperature: 29.4°C ( 85°F)
Dewpoint: 20.6°C ( 69°F) [RH = 59%]
Pressure (altimeter):30.10 inches Hg (1019.4 mb) [Sea level pressure: 1019.0 mb]
Winds:from the SSW (210 degrees) at 6 MPH (5 knots; 2.6 m/s)
Visibility:10 or more sm (16+ km)
Ceiling:at least 12,000 feet AGL
Clouds:sky clear below 12,000 feet AGL
QC Flag:automated observation with no human augmentation
Text:KHSE 151651Z AUTO VRB03KT 10SM CLR 29/21 A3010 RMK AO2 SLP191 T02890206
Temperature: 28.9°C ( 84°F)
Dewpoint: 20.6°C ( 69°F) [RH = 61%]
Pressure (altimeter):30.10 inches Hg (1019.4 mb) [Sea level pressure: 1019.1 mb]
Winds:variable direction winds at 3 MPH (3 knots; 1.5 m/s)
Visibility:10 or more sm (16+ km)
Ceiling:at least 12,000 feet AGL
Clouds:sky clear below 12,000 feet AGL
QC Flag:automated observation with no human augmentation
Text:KHSE 151551Z AUTO 22004KT 10SM CLR 29/21 A3010 RMK AO2 SLP191 T02890206
Temperature: 28.9°C ( 84°F)
Dewpoint: 20.6°C ( 69°F) [RH = 61%]
Pressure (altimeter):30.10 inches Hg (1019.4 mb) [Sea level pressure: 1019.1 mb]
Winds:from the SW (220 degrees) at 5 MPH (4 knots; 2.1 m/s)
Visibility:10 or more sm (16+ km)
Ceiling:at least 12,000 feet AGL
Clouds:sky clear below 12,000 feet AGL
QC Flag:automated observation with no human augmentation
Text:KHSE 151451Z AUTO VRB04KT 10SM CLR 29/20 A3010 RMK AO2 SLP193 T02890200 51002
Temperature: 28.9°C ( 84°F)
Dewpoint: 20.0°C ( 68°F) [RH = 59%]
Pressure (altimeter):30.10 inches Hg (1019.4 mb) [Sea level pressure: 1019.3 mb]
Winds:variable direction winds at 5 MPH (4 knots; 2.1 m/s)
Visibility:10 or more sm (16+ km)
Ceiling:at least 12,000 feet AGL
Clouds:sky clear below 12,000 feet AGL
QC Flag:automated observation with no human augmentation
Text:KHSE 151351Z AUTO 18004KT 10SM CLR 28/20 A3010 RMK AO2 SLP192 T02780200
Temperature: 27.8°C ( 82°F)
Dewpoint: 20.0°C ( 68°F) [RH = 63%]
Pressure (altimeter):30.10 inches Hg (1019.4 mb) [Sea level pressure: 1019.2 mb]
Winds:from the S (180 degrees) at 5 MPH (4 knots; 2.1 m/s)
Visibility:10 or more sm (16+ km)
Ceiling:at least 12,000 feet AGL
Clouds:sky clear below 12,000 feet AGL
QC Flag:automated observation with no human augmentation
Text:KHSE 151251Z AUTO VRB03KT 10SM CLR 28/21 A3011 RMK AO2 SLP195 T02780211
Temperature: 27.8°C ( 82°F)
Dewpoint: 21.1°C ( 70°F) [RH = 67%]
Pressure (altimeter):30.11 inches Hg (1019.7 mb) [Sea level pressure: 1019.5 mb]
Winds:variable direction winds at 3 MPH (3 knots; 1.5 m/s)
Visibility:10 or more sm (16+ km)
Ceiling:at least 12,000 feet AGL
Clouds:sky clear below 12,000 feet AGL
QC Flag:automated observation with no human augmentation
Text:KHSE 151151Z AUTO 00000KT 10SM FEW030 27/22 A3010 RMK AO2 SLP191 T02670217 10267 20222 53003
Temperature: 26.7°C ( 80°F)
Dewpoint: 21.7°C ( 71°F) [RH = 74%]
Pressure (altimeter):30.10 inches Hg (1019.4 mb) [Sea level pressure: 1019.1 mb]
Winds:calm
Visibility:10 or more sm (16+ km)
Ceiling:at least 12,000 feet AGL
Clouds: few clouds at 3000 feet AGL
QC Flag:automated observation with no human augmentation
Text:KHSE 151051Z AUTO 00000KT 10SM CLR 23/22 A3009 RMK AO2 SLP189 T02330217
Temperature: 23.3°C ( 74°F)
Dewpoint: 21.7°C ( 71°F) [RH = 91%]
Pressure (altimeter):30.09 inches Hg (1019.0 mb) [Sea level pressure: 1018.9 mb]
Winds:calm
Visibility:10 or more sm (16+ km)
Ceiling:at least 12,000 feet AGL
Clouds:sky clear below 12,000 feet AGL
QC Flag:automated observation with no human augmentation
Text:KHSE 150951Z AUTO 00000KT 10SM CLR 22/21 A3009 RMK AO2 SLP188 T02220211
Temperature: 22.2°C ( 72°F)
Dewpoint: 21.1°C ( 70°F) [RH = 93%]
Pressure (altimeter):30.09 inches Hg (1019.0 mb) [Sea level pressure: 1018.8 mb]
Winds:calm
Visibility:10 or more sm (16+ km)
Ceiling:at least 12,000 feet AGL
Clouds:sky clear below 12,000 feet AGL
QC Flag:automated observation with no human augmentation
Text:KHSE 150851Z AUTO 00000KT 10SM CLR 23/21 A3009 RMK AO2 SLP188 T02280211 56009
Temperature: 22.8°C ( 73°F)
Dewpoint: 21.1°C ( 70°F) [RH = 90%]
Pressure (altimeter):30.09 inches Hg (1019.0 mb) [Sea level pressure: 1018.8 mb]
Winds:calm
Visibility:10 or more sm (16+ km)
Ceiling:at least 12,000 feet AGL
Clouds:sky clear below 12,000 feet AGL
QC Flag:automated observation with no human augmentation
Text:KHSE 150751Z AUTO 00000KT 10SM BKN032 BKN042 24/22 A3009 RMK AO2 SLP189 T02440217
Temperature: 24.4°C ( 76°F)
Dewpoint: 21.7°C ( 71°F) [RH = 85%]
Pressure (altimeter):30.09 inches Hg (1019.0 mb) [Sea level pressure: 1018.9 mb]
Winds:calm
Visibility:10 or more sm (16+ km)
Ceiling:3200 feet AGL
Clouds: broken clouds at 3200 feet AGL, broken clouds at 4200 feet AGL
QC Flag:automated observation with no human augmentation
Text:KHSE 150651Z AUTO 13005KT 10SM BKN032 25/22 A3010 RMK AO2 SLP191 T02500217
Temperature: 25.0°C ( 77°F)
Dewpoint: 21.7°C ( 71°F) [RH = 82%]
Pressure (altimeter):30.10 inches Hg (1019.4 mb) [Sea level pressure: 1019.1 mb]
Winds:from the SE (130 degrees) at 6 MPH (5 knots; 2.6 m/s)
Visibility:10 or more sm (16+ km)
Ceiling:3200 feet AGL
Clouds: broken clouds at 3200 feet AGL
QC Flag:automated observation with no human augmentation
Text:KHSE 150551Z AUTO 09003KT 10SM CLR 23/21 A3011 RMK AO2 SLP197 T02280211 10250 20228 58002
Temperature: 22.8°C ( 73°F)
Dewpoint: 21.1°C ( 70°F) [RH = 90%]
Pressure (altimeter):30.11 inches Hg (1019.7 mb) [Sea level pressure: 1019.7 mb]
Winds:from the E (90 degrees) at 3 MPH (3 knots; 1.5 m/s)
Visibility:10 or more sm (16+ km)
Ceiling:at least 12,000 feet AGL
Clouds:sky clear below 12,000 feet AGL
QC Flag:automated observation with no human augmentation
Text:KHSE 150451Z AUTO 10004KT 10SM CLR 23/21 A3012 RMK AO2 SLP199 T02330211 402890200
Temperature: 23.3°C ( 74°F)
Dewpoint: 21.1°C ( 70°F) [RH = 87%]
Pressure (altimeter):30.12 inches Hg (1020.1 mb) [Sea level pressure: 1019.9 mb]
Winds:from the E (100 degrees) at 5 MPH (4 knots; 2.1 m/s)
Visibility:10 or more sm (16+ km)
Ceiling:at least 12,000 feet AGL
Clouds:sky clear below 12,000 feet AGL
QC Flag:automated observation with no human augmentation
Text:KHSE 150351Z AUTO 09003KT 10SM CLR 23/21 A3011 RMK AO2 SLP197 T02280206
Temperature: 22.8°C ( 73°F)
Dewpoint: 20.6°C ( 69°F) [RH = 87%]
Pressure (altimeter):30.11 inches Hg (1019.7 mb) [Sea level pressure: 1019.7 mb]
Winds:from the E (90 degrees) at 3 MPH (3 knots; 1.5 m/s)
Visibility:10 or more sm (16+ km)
Ceiling:at least 12,000 feet AGL
Clouds:sky clear below 12,000 feet AGL
QC Flag:automated observation with no human augmentation
Text:KHSE 150251Z AUTO 07004KT 10SM CLR 23/21 A3012 RMK AO2 SLP199 T02330206 50006
Temperature: 23.3°C ( 74°F)
Dewpoint: 20.6°C ( 69°F) [RH = 85%]
Pressure (altimeter):30.12 inches Hg (1020.1 mb) [Sea level pressure: 1019.9 mb]
Winds:from the ENE (70 degrees) at 5 MPH (4 knots; 2.1 m/s)
Visibility:10 or more sm (16+ km)
Ceiling:at least 12,000 feet AGL
Clouds:sky clear below 12,000 feet AGL
QC Flag:automated observation with no human augmentation
Text:KHSE 150151Z AUTO 06005KT 10SM CLR 24/21 A3012 RMK AO2 SLP199 T02390206
Temperature: 23.9°C ( 75°F)
Dewpoint: 20.6°C ( 69°F) [RH = 82%]
Pressure (altimeter):30.12 inches Hg (1020.1 mb) [Sea level pressure: 1019.9 mb]
Winds:from the ENE (60 degrees) at 6 MPH (5 knots; 2.6 m/s)
Visibility:10 or more sm (16+ km)
Ceiling:at least 12,000 feet AGL
Clouds:sky clear below 12,000 feet AGL
QC Flag:automated observation with no human augmentation
Text:KHSE 150051Z AUTO 06005KT 10SM CLR 24/19 A3011 RMK AO2 SLP195 T02390194
Temperature: 23.9°C ( 75°F)
Dewpoint: 19.4°C ( 67°F) [RH = 76%]
Pressure (altimeter):30.11 inches Hg (1019.7 mb) [Sea level pressure: 1019.5 mb]
Winds:from the ENE (60 degrees) at 6 MPH (5 knots; 2.6 m/s)
Visibility:10 or more sm (16+ km)
Ceiling:at least 12,000 feet AGL
Clouds:sky clear below 12,000 feet AGL
QC Flag:automated observation with no human augmentation
Text:KHSE 142351Z AUTO 06005KT 10SM CLR 25/18 A3010 RMK AO2 SLP193 T02500183 10289 20250 55008
Temperature: 25.0°C ( 77°F)
Dewpoint: 18.3°C ( 65°F) [RH = 66%]
Pressure (altimeter):30.10 inches Hg (1019.4 mb) [Sea level pressure: 1019.3 mb]
Winds:from the ENE (60 degrees) at 6 MPH (5 knots; 2.6 m/s)
Visibility:10 or more sm (16+ km)
Ceiling:at least 12,000 feet AGL
Clouds:sky clear below 12,000 feet AGL
QC Flag:automated observation with no human augmentation
Text:KHSE 142251Z AUTO 06007KT 030V090 10SM CLR 26/18 A3010 RMK AO2 SLP192 T02610183
Temperature: 26.1°C ( 79°F)
Dewpoint: 18.3°C ( 65°F) [RH = 62%]
Pressure (altimeter):30.10 inches Hg (1019.4 mb) [Sea level pressure: 1019.2 mb]
Winds:from the ENE (60 degrees) at 8 MPH (7 knots; 3.6 m/s)
Visibility:10 or more sm (16+ km)
Ceiling:at least 12,000 feet AGL
Clouds:sky clear below 12,000 feet AGL
QC Flag:automated observation with no human augmentation
Text:KHSE 142151Z AUTO 05007KT 10SM BKN049 27/18 A3012 RMK AO2 SLP199 T02720183
Temperature: 27.2°C ( 81°F)
Dewpoint: 18.3°C ( 65°F) [RH = 58%]
Pressure (altimeter):30.12 inches Hg (1020.1 mb) [Sea level pressure: 1019.9 mb]
Winds:from the NE (50 degrees) at 8 MPH (7 knots; 3.6 m/s)
Visibility:10 or more sm (16+ km)
Ceiling:4900 feet AGL
Clouds: broken clouds at 4900 feet AGL
QC Flag:automated observation with no human augmentation